Time;durP1;ratioP1;P1;durP2;ratioP2;P2;SDS_P1;SDS_P2;PMS_P1;PMS_P2;Temp;Humidity;BMP_temperature;BMP_pressure;BME280_temperature;BME280_humidity;BME280_pressure;Samples;Min_cycle;Max_cycle;Signal;HPM_P1;HPM_P2
2022/07/04 00:01:35;;;;;;;4.67;3.85;;;;;;;15.43;100.00;100967.13;1782307;80;21658;-42
2022/07/04 00:04:03;;;;;;;11.90;3.87;;;;;;;15.27;100.00;100967.19;1779053;80;21064;-43
2022/07/04 00:06:29;;;;;;;7.85;3.58;;;;;;;15.15;100.00;100971.01;1776271;80;21868;-42
2022/07/04 00:08:56;;;;;;;5.42;3.83;;;;;;;15.06;100.00;100965.17;1782075;80;20948;-43
2022/07/04 00:11:23;;;;;;;8.53;4.30;;;;;;;15.01;100.00;100971.41;1782417;80;20992;-43
2022/07/04 00:13:49;;;;;;;8.83;4.17;;;;;;;14.93;100.00;100968.59;1781813;80;21108;-42
2022/07/04 00:16:18;;;;;;;6.58;4.22;;;;;;;14.85;100.00;100964.48;1771504;80;21548;-42
2022/07/04 00:18:45;;;;;;;7.53;4.15;;;;;;;14.77;100.00;100962.09;1782416;80;21258;-42
2022/07/04 00:21:13;;;;;;;5.87;3.98;;;;;;;14.71;100.00;100965.73;1782300;80;21454;-43
2022/07/04 00:23:40;;;;;;;5.22;3.77;;;;;;;14.68;100.00;100954.50;1782670;80;20937;-43
2022/07/04 00:26:07;;;;;;;5.70;4.03;;;;;;;14.63;100.00;100959.39;1780440;80;21512;-42
2022/07/04 00:28:34;;;;;;;4.25;3.95;;;;;;;14.58;100.00;100956.50;1782261;80;20960;-42
2022/07/04 00:31:01;;;;;;;14.13;4.42;;;;;;;14.51;100.00;100951.90;1782119;80;21156;-42
2022/07/04 00:33:28;;;;;;;7.65;4.30;;;;;;;14.43;100.00;100955.17;1782457;80;21030;-42
2022/07/04 00:35:55;;;;;;;5.33;4.70;;;;;;;14.37;100.00;100954.44;1779868;80;20936;-42
2022/07/04 00:38:22;;;;;;;11.65;4.80;;;;;;;14.34;100.00;100954.95;1781887;80;21058;-42
2022/07/04 00:40:49;;;;;;;5.55;4.78;;;;;;;14.30;100.00;100950.30;1762438;81;20941;-42
2022/07/04 00:43:25;;;;;;;4.75;4.30;;;;;;;14.26;100.00;100955.16;1766693;81;21067;-43
2022/07/04 00:45:51;;;;;;;9.35;4.75;;;;;;;14.22;100.00;100953.09;1759048;81;21643;-42
2022/07/04 00:48:19;;;;;;;8.95;4.78;;;;;;;14.17;100.00;100953.67;1766972;81;20972;-42
2022/07/04 00:50:46;;;;;;;9.45;4.20;;;;;;;14.15;100.00;100956.76;1759407;81;21548;-42
2022/07/04 00:53:15;;;;;;;8.58;3.70;;;;;;;14.18;100.00;100961.02;1761715;81;21015;-42
2022/07/04 00:55:42;;;;;;;8.90;4.25;;;;;;;14.32;100.00;100961.95;1763495;81;21165;-43
2022/07/04 00:58:08;;;;;;;6.15;4.37;;;;;;;14.54;100.00;100960.09;1767016;81;21270;-42
2022/07/04 01:00:35;;;;;;;5.25;4.65;;;;;;;14.70;100.00;100959.22;1764746;80;20902;-42
2022/07/04 01:03:02;;;;;;;6.40;4.15;;;;;;;14.85;100.00;100957.53;1759743;81;20901;-42
2022/07/04 01:05:29;;;;;;;5.62;4.30;;;;;;;14.99;100.00;100959.74;1762696;80;20945;-43
2022/07/04 01:07:56;;;;;;;6.80;3.77;;;;;;;15.07;100.00;100959.52;1766863;81;22185;-43
2022/07/04 01:10:23;;;;;;;10.18;3.85;;;;;;;15.10;100.00;100958.13;1766719;80;20921;-42
2022/07/04 01:12:49;;;;;;;6.78;4.00;;;;;;;15.16;100.00;100961.02;1766399;81;20956;-43
2022/07/04 01:15:17;;;;;;;4.30;3.58;;;;;;;15.22;100.00;100962.13;1753248;81;21465;-42
2022/07/04 01:17:44;;;;;;;5.00;4.50;;;;;;;15.29;100.00;100965.41;1762910;81;20980;-42
2022/07/04 01:20:13;;;;;;;4.95;3.65;;;;;;;15.33;100.00;100959.20;1766915;81;21154;-42
2022/07/04 01:22:40;;;;;;;5.50;3.40;;;;;;;15.32;100.00;100963.55;1767275;81;21012;-43
2022/07/04 01:25:08;;;;;;;8.73;3.37;;;;;;;15.28;100.00;100961.94;1765197;81;22619;-43
2022/07/04 01:27:36;;;;;;;4.40;3.42;;;;;;;15.24;100.00;100959.02;1766612;80;21007;-43
2022/07/04 01:30:04;;;;;;;5.60;3.75;;;;;;;15.20;100.00;100960.02;1756765;81;20956;-43
2022/07/04 01:32:31;;;;;;;5.67;3.52;;;;;;;15.17;100.00;100958.34;1748160;81;21045;-43
2022/07/04 01:34:57;;;;;;;3.72;3.33;;;;;;;15.16;100.00;100955.80;1762690;81;21075;-43
2022/07/04 01:37:25;;;;;;;4.35;3.47;;;;;;;15.13;100.00;100952.82;1767078;81;20957;-41
2022/07/04 01:39:52;;;;;;;4.12;3.35;;;;;;;15.07;100.00;100955.16;1770150;80;21016;-41
2022/07/04 01:42:19;;;;;;;5.25;3.47;;;;;;;15.00;100.00;100954.06;1755296;80;20980;-41
2022/07/04 01:44:45;;;;;;;6.55;4.05;;;;;;;14.92;100.00;100961.66;1781960;80;21121;-43
2022/07/04 01:47:12;;;;;;;4.65;3.75;;;;;;;14.85;100.00;100962.75;1778524;80;20971;-43
2022/07/04 01:49:39;;;;;;;7.85;3.50;;;;;;;14.83;100.00;100967.15;1778399;80;21102;-43
2022/07/04 01:52:06;;;;;;;4.78;3.30;;;;;;;14.83;100.00;100968.45;1775582;80;21465;-43
2022/07/04 01:54:33;;;;;;;7.83;4.08;;;;;;;14.77;100.00;100969.91;1779347;80;20960;-44
2022/07/04 01:57:01;;;;;;;5.83;3.33;;;;;;;14.65;100.00;100971.06;1764778;80;21047;-43
2022/07/04 02:02:13;;;;;;;7.12;3.98;;;;;;;14.43;100.00;100966.45;1780976;80;21517;-43
2022/07/04 02:04:40;;;;;;;7.42;3.85;;;;;;;14.39;100.00;100972.61;1758833;80;21055;-43
2022/07/04 02:07:07;;;;;;;6.45;3.25;;;;;;;14.35;100.00;100971.86;1763644;80;20939;-43
2022/07/04 02:09:35;;;;;;;5.65;3.67;;;;;;;14.37;100.00;100972.67;1779194;80;22052;-43
2022/07/04 02:13:03;;;;;;;9.90;3.70;;;;;;;14.48;100.00;100972.82;1782253;80;21007;-43
2022/07/04 02:14:41;;;;;;;4.05;3.65;;;;;;;14.57;100.00;100972.59;1734719;80;21077;-41
2022/07/04 02:17:09;;;;;;;3.83;3.50;;;;;;;14.62;100.00;100974.62;1779917;80;21015;-43
2022/07/04 02:19:36;;;;;;;6.00;3.67;;;;;;;14.68;100.00;100980.13;1781796;80;21007;-43
2022/07/04 02:22:04;;;;;;;4.60;3.40;;;;;;;14.74;100.00;100983.89;1782325;80;21225;-43
2022/07/04 02:24:30;;;;;;;6.33;3.60;;;;;;;14.88;100.00;100983.94;1763210;80;20967;-42
2022/07/04 02:26:58;;;;;;;3.83;3.35;;;;;;;14.97;100.00;100986.73;1782263;80;20991;-41
2022/07/04 02:29:24;;;;;;;7.33;3.33;;;;;;;15.05;100.00;100982.19;1772879;80;21098;-41
2022/07/04 02:31:51;;;;;;;3.62;2.83;;;;;;;15.11;100.00;100983.73;1782514;80;20940;-42
2022/07/04 02:34:18;;;;;;;9.45;2.98;;;;;;;15.16;100.00;100985.32;1782201;80;21105;-42
2022/07/04 02:36:46;;;;;;;3.52;3.10;;;;;;;15.23;100.00;100986.84;1778783;80;21616;-41
2022/07/04 02:39:13;;;;;;;5.47;2.98;;;;;;;15.30;100.00;100984.07;1765081;80;20983;-41
2022/07/04 02:41:41;;;;;;;5.62;3.17;;;;;;;15.35;100.00;100992.14;1782118;80;21463;-42
2022/07/04 02:44:08;;;;;;;4.45;3.08;;;;;;;15.38;100.00;100990.73;1782303;80;20932;-42
2022/07/04 02:46:35;;;;;;;3.02;2.70;;;;;;;15.42;100.00;100986.30;1781942;80;21060;-41
2022/07/04 02:49:02;;;;;;;3.22;2.75;;;;;;;15.49;100.00;100996.09;1780899;80;20881;-42
2022/07/04 02:51:30;;;;;;;3.05;2.72;;;;;;;15.55;100.00;100993.77;1763674;80;21399;-41
2022/07/04 02:53:56;;;;;;;4.42;2.60;;;;;;;15.60;100.00;100993.16;1782210;80;20937;-42
2022/07/04 02:56:23;;;;;;;2.75;2.15;;;;;;;15.65;100.00;100993.41;1782218;80;21010;-42
2022/07/04 02:58:49;;;;;;;2.85;2.55;;;;;;;15.71;100.00;100989.75;1782075;80;21061;-43
2022/07/04 03:01:18;;;;;;;4.70;3.17;;;;;;;15.76;100.00;100987.84;1782403;80;21560;-43
2022/07/04 03:03:44;;;;;;;6.85;3.22;;;;;;;15.83;100.00;100988.98;1771504;80;20940;-42
2022/07/04 03:06:12;;;;;;;4.33;2.90;;;;;;;15.91;100.00;100996.14;1763910;80;20972;-43
2022/07/04 03:08:38;;;;;;;12.00;3.60;;;;;;;16.02;100.00;100997.09;1779764;80;21067;-43
2022/07/04 03:11:05;;;;;;;2.77;2.52;;;;;;;16.11;100.00;101001.17;1781329;80;21152;-43
2022/07/04 03:13:32;;;;;;;8.48;2.80;;;;;;;16.20;100.00;101003.46;1782027;80;20929;-42
2022/07/04 03:15:58;;;;;;;5.47;2.60;;;;;;;16.31;100.00;101003.97;1782219;80;20935;-43
2022/07/04 03:18:25;;;;;;;3.70;2.33;;;;;;;16.40;100.00;100994.11;1779346;80;20967;-43
2022/07/04 03:20:52;;;;;;;3.80;2.42;;;;;;;16.51;100.00;100993.27;1775517;80;21035;-43
2022/07/04 03:23:18;;;;;;;4.10;2.33;;;;;;;16.62;100.00;100995.06;1782476;80;21101;-43
2022/07/04 03:25:45;;;;;;;3.92;2.70;;;;;;;16.75;100.00;100993.31;1782062;80;20916;-43
2022/07/04 03:28:12;;;;;;;2.92;2.52;;;;;;;16.86;100.00;100992.92;1762680;80;21047;-43
2022/07/04 03:30:39;;;;;;;2.75;2.20;;;;;;;16.97;100.00;100988.17;1772915;80;20991;-43
2022/07/04 03:33:06;;;;;;;2.30;2.10;;;;;;;17.06;100.00;100993.08;1782445;80;20924;-42
2022/07/04 03:35:32;;;;;;;3.10;2.15;;;;;;;17.19;100.00;100988.25;1782069;80;21042;-43
2022/07/04 03:37:59;;;;;;;6.33;2.20;;;;;;;17.32;100.00;100990.41;1782447;80;21478;-43
2022/07/04 03:40:30;;;;;;;4.08;2.27;;;;;;;17.45;100.00;100985.09;1779671;80;20984;-43
2022/07/04 03:42:54;;;;;;;5.78;2.10;;;;;;;17.60;100.00;100984.10;1773766;80;20984;-43
2022/07/04 03:45:22;;;;;;;14.95;2.47;;;;;;;17.79;100.00;100986.36;1774075;80;20979;-43
2022/07/04 03:47:49;;;;;;;4.17;1.92;;;;;;;18.08;100.00;100983.50;1774486;80;21177;-43
2022/07/04 03:50:15;;;;;;;4.45;1.72;;;;;;;18.45;100.00;100986.33;1774166;80;21446;-43
2022/07/04 03:52:43;;;;;;;2.62;1.77;;;;;;;18.82;100.00;100979.48;1773871;80;21198;-44
2022/07/04 03:55:09;;;;;;;3.58;1.87;;;;;;;19.18;100.00;100981.37;1771740;80;20924;-43
2022/07/04 03:57:37;;;;;;;5.83;1.82;;;;;;;19.58;100.00;100971.20;1773987;80;20984;-43
2022/07/04 04:00:04;;;;;;;4.08;1.80;;;;;;;20.00;100.00;100975.31;1772803;80;21063;-44
2022/07/04 04:02:34;;;;;;;2.00;1.80;;;;;;;20.39;98.90;100972.05;1773878;80;20956;-43
2022/07/04 04:07:46;;;;;;;3.87;1.80;;;;;;;20.99;91.38;100973.34;1763378;80;22043;-43
2022/07/04 04:10:12;;;;;;;3.62;1.50;;;;;;;21.20;88.26;100969.99;1769501;80;21314;-44
2022/07/04 04:12:39;;;;;;;1.92;1.60;;;;;;;21.46;87.17;100969.45;1763520;80;21056;-43
2022/07/04 04:15:07;;;;;;;2.95;1.37;;;;;;;21.71;85.81;100977.31;1766507;80;20933;-43
2022/07/04 04:17:34;;;;;;;4.83;1.85;;;;;;;21.89;84.24;100968.84;1749280;80;21560;-43
2022/07/04 04:20:04;;;;;;;1.98;1.87;;;;;;;22.05;83.32;100976.20;1754464;80;21455;-44
2022/07/04 04:22:31;;;;;;;1.55;1.40;;;;;;;22.26;81.57;100979.84;1698245;84;21684;-44
2022/07/04 04:24:58;;;;;;;3.70;1.77;;;;;;;22.37;78.91;100976.56;1774044;80;21147;-44
2022/07/04 04:27:24;;;;;;;4.20;1.92;;;;;;;22.48;77.78;100975.95;1773392;80;20975;-43
2022/07/04 04:29:51;;;;;;;2.98;1.98;;;;;;;22.60;77.73;100972.55;1761013;80;20933;-44
2022/07/04 04:32:17;;;;;;;5.65;1.92;;;;;;;22.73;77.69;100974.44;1761765;80;20944;-44
2022/07/04 04:34:44;;;;;;;7.25;2.40;;;;;;;22.89;76.04;100973.88;1764115;80;20984;-43
2022/07/04 04:37:11;;;;;;;2.50;2.25;;;;;;;23.00;74.78;100975.84;1750596;80;21245;-43
2022/07/04 04:39:39;;;;;;;8.48;2.10;;;;;;;23.08;74.00;100968.28;1760413;80;21054;-44
2022/07/04 04:42:06;;;;;;;3.90;2.10;;;;;;;23.21;75.06;100969.67;1753466;80;20960;-44
2022/07/04 04:44:33;;;;;;;5.62;1.98;;;;;;;23.33;74.69;100967.20;1709248;83;22395;-43
2022/07/04 04:46:59;;;;;;;5.30;2.20;;;;;;;23.53;74.88;100976.50;1751279;81;20986;-43
2022/07/04 04:49:26;;;;;;;2.67;2.30;;;;;;;23.73;73.50;100974.31;1761522;81;21825;-44
2022/07/04 04:51:53;;;;;;;3.83;2.10;;;;;;;23.83;72.56;100981.54;1750372;81;20972;-44
2022/07/04 04:54:19;;;;;;;6.60;2.55;;;;;;;23.90;71.47;100973.22;1752569;81;20944;-44
2022/07/04 04:56:47;;;;;;;3.45;2.00;;;;;;;23.95;71.20;100971.11;1752835;81;21032;-44
2022/07/04 04:59:14;;;;;;;4.85;2.33;;;;;;;24.11;71.21;100974.42;1712459;83;21148;-44
2022/07/04 05:01:41;;;;;;;2.95;2.30;;;;;;;24.23;70.33;100975.88;1750428;81;21153;-44
2022/07/04 05:04:09;;;;;;;7.40;2.70;;;;;;;24.20;70.33;100980.06;1726999;81;21525;-44
2022/07/04 05:06:36;;;;;;;3.58;2.60;;;;;;;24.18;70.66;100974.03;1717783;83;20984;-44
2022/07/04 05:09:02;;;;;;;5.47;2.27;;;;;;;24.28;70.20;100975.09;1766558;81;20968;-44
2022/07/04 05:11:29;;;;;;;12.47;2.90;;;;;;;24.39;70.01;100968.60;1766786;81;20964;-44
2022/07/04 05:13:56;;;;;;;7.80;2.50;;;;;;;24.65;69.98;100965.94;1764711;81;21875;-44
2022/07/04 05:16:22;;;;;;;8.30;2.67;;;;;;;24.89;69.73;100969.16;1766900;81;21016;-44
2022/07/04 05:18:49;;;;;;;7.72;2.50;;;;;;;25.18;69.59;100962.24;1765387;81;20968;-44
2022/07/04 05:21:15;;;;;;;9.70;2.72;;;;;;;25.48;68.64;100958.33;1759725;81;20987;-44
2022/07/04 05:23:42;;;;;;;12.25;3.20;;;;;;;25.78;67.62;100957.49;1767358;81;21546;-44
2022/07/04 05:26:08;;;;;;;6.92;2.67;;;;;;;25.96;66.37;100960.55;1714038;83;21056;-44
2022/07/04 05:28:35;;;;;;;13.80;3.12;;;;;;;26.01;65.72;100958.39;1752650;81;21526;-42
2022/07/04 05:31:02;;;;;;;4.28;2.47;;;;;;;26.08;65.51;100963.58;1735754;81;21007;-42
2022/07/04 05:33:29;;;;;;;8.85;2.72;;;;;;;26.19;66.00;100963.28;1699526;83;21302;-42
2022/07/04 05:35:56;;;;;;;8.08;2.62;;;;;;;26.31;65.08;100962.83;1766829;81;20975;-42
2022/07/04 05:38:23;;;;;;;2.77;2.58;;;;;;;26.50;65.46;100960.89;1766863;81;21339;-42
2022/07/04 05:40:49;;;;;;;10.23;3.17;;;;;;;26.78;64.46;100960.05;1766009;81;20925;-41
2022/07/04 05:43:17;;;;;;;10.08;2.90;;;;;;;26.91;62.47;100956.81;1768462;80;21328;-42
2022/07/04 05:45:44;;;;;;;8.65;2.67;;;;;;;26.93;63.13;100954.02;1767107;80;20964;-42
2022/07/04 05:48:10;;;;;;;6.90;2.90;;;;;;;27.05;63.21;100956.17;1768873;80;21015;-43
2022/07/04 05:50:37;;;;;;;13.85;2.83;;;;;;;27.17;62.64;100956.52;1774112;80;21091;-42
2022/07/04 05:53:04;;;;;;;14.38;3.50;;;;;;;27.25;62.82;100956.73;1761095;80;21021;-43
2022/07/04 05:55:33;;;;;;;17.90;4.25;;;;;;;27.40;62.85;100951.10;1773502;80;20997;-43
2022/07/04 05:57:59;;;;;;;6.83;2.50;;;;;;;27.49;61.66;100950.36;1773890;80;21525;-42
2022/07/04 06:00:26;;;;;;;5.05;2.87;;;;;;;27.62;62.05;100942.72;1764499;80;21043;-42
2022/07/04 06:02:53;;;;;;;6.47;2.52;;;;;;;27.72;61.23;100948.11;1773599;80;22190;-42
2022/07/04 06:05:19;;;;;;;9.73;2.60;;;;;;;27.80;60.64;100947.83;1765017;80;21035;-44
2022/07/04 06:07:48;;;;;;;8.33;3.27;;;;;;;27.87;60.05;100944.17;1744404;80;21015;-43
2022/07/04 06:10:15;;;;;;;16.27;3.60;;;;;;;27.93;60.36;100948.13;1763725;80;21013;-43
2022/07/04 06:12:42;;;;;;;16.90;3.33;;;;;;;28.02;60.54;100946.01;1716793;82;21008;-43
2022/07/04 06:15:10;;;;;;;17.87;3.22;;;;;;;28.17;59.58;100955.03;1764444;80;21160;-43
2022/07/04 06:17:37;;;;;;;40.00;4.28;;;;;;;28.31;60.52;100952.00;1771218;80;20940;-44
2022/07/04 06:21:22;;;;;;;21.95;3.87;;;;;;;28.50;59.15;100945.91;1814220;78;23973;-44
2022/07/04 06:23:49;;;;;;;21.45;3.77;;;;;;;28.57;57.72;100949.40;1770855;80;21496;-44
2022/07/04 06:26:16;;;;;;;10.60;3.20;;;;;;;28.70;58.85;100942.50;1756184;80;21223;-43
2022/07/04 06:28:42;;;;;;;3.62;2.67;;;;;;;28.81;57.49;100943.75;1744885;80;21698;-43
2022/07/04 06:31:13;;;;;;;6.72;2.60;;;;;;;28.82;55.68;100946.28;1755751;80;20995;-43
2022/07/04 06:36:30;;;;;;;5.85;2.70;;;;;;;28.52;56.17;100939.14;1748319;80;20960;-44
2022/07/04 06:38:59;;;;;;;11.93;3.15;;;;;;;28.54;57.37;100939.84;1746274;80;21081;-44
2022/07/04 06:41:28;;;;;;;12.53;3.72;;;;;;;28.63;56.90;100935.54;1735992;80;20956;-44
2022/07/04 06:43:55;;;;;;;11.28;3.00;;;;;;;28.70;55.94;100933.19;1758524;80;21130;-44
2022/07/04 06:46:23;;;;;;;17.35;3.22;;;;;;;28.66;57.33;100936.59;1748056;80;20987;-44
2022/07/04 06:48:50;;;;;;;15.50;2.65;;;;;;;28.77;56.08;100938.31;1757718;80;20948;-44
2022/07/04 06:51:17;;;;;;;20.85;3.15;;;;;;;28.82;56.31;100945.42;1748547;80;21246;-45
2022/07/04 06:53:45;;;;;;;19.70;3.60;;;;;;;28.92;56.43;100943.62;1756640;80;20985;-45
2022/07/04 06:56:12;;;;;;;6.53;2.60;;;;;;;29.05;55.53;100938.54;1739391;80;21556;-44
2022/07/04 06:58:42;;;;;;;5.92;2.67;;;;;;;29.04;54.82;100935.52;1755831;80;21051;-44
2022/07/04 07:01:09;;;;;;;18.55;3.52;;;;;;;29.10;54.46;100942.48;1758697;80;20940;-44
2022/07/04 07:03:37;;;;;;;79.20;6.42;;;;;;;29.16;54.28;100938.40;1746350;80;21088;-44
2022/07/04 07:06:04;;;;;;;11.70;3.08;;;;;;;29.25;54.43;100938.06;1736094;80;21465;-44
2022/07/04 07:08:31;;;;;;;8.10;2.90;;;;;;;29.15;52.05;100934.05;1736579;81;21101;-44
2022/07/04 07:11:12;;;;;;;9.08;2.70;;;;;;;28.99;52.50;100933.77;1744362;80;20968;-44
2022/07/04 07:13:27;;;;;;;11.08;2.62;;;;;;;29.02;52.83;100930.32;1750859;80;20979;-44
2022/07/04 07:15:56;;;;;;;7.45;2.50;;;;;;;29.08;52.78;100931.59;1739742;80;21060;-44
2022/07/04 07:18:23;;;;;;;12.75;3.37;;;;;;;29.22;52.92;100925.88;1747579;81;21046;-45
2022/07/04 07:20:49;;;;;;;16.42;2.90;;;;;;;29.43;51.94;100929.41;1738726;80;21565;-44
2022/07/04 07:23:16;;;;;;;10.43;2.80;;;;;;;29.57;50.11;100930.80;1755697;80;20987;-45
2022/07/04 07:25:42;;;;;;;22.98;3.98;;;;;;;29.70;49.41;100927.37;1744001;80;21568;-45
2022/07/04 07:28:09;;;;;;;15.88;3.10;;;;;;;29.72;49.95;100925.39;1741943;80;21263;-44
2022/07/04 07:30:36;;;;;;;34.53;3.95;;;;;;;29.94;51.45;100931.39;1732582;80;21222;-43
2022/07/04 07:33:04;;;;;;;14.73;2.72;;;;;;;30.09;50.44;100931.30;1746813;80;20995;-42
2022/07/04 07:35:32;;;;;;;5.85;2.60;;;;;;;29.93;49.19;100933.68;1750963;80;21003;-43
2022/07/04 07:38:00;;;;;;;6.47;2.72;;;;;;;29.87;49.39;100943.13;1767652;80;20988;-43
2022/07/04 07:40:28;;;;;;;3.35;2.77;;;;;;;29.87;49.17;100935.59;1750515;80;21265;-44
2022/07/04 07:42:54;;;;;;;12.45;2.83;;;;;;;29.80;45.87;100942.84;1753953;80;20964;-43
2022/07/04 07:45:21;;;;;;;6.20;2.92;;;;;;;29.93;47.06;100935.02;1757019;80;20964;-43
2022/07/04 07:47:50;;;;;;;6.92;2.40;;;;;;;30.16;46.15;100933.38;1768120;80;21039;-43
2022/07/04 07:50:18;;;;;;;6.50;2.90;;;;;;;30.42;47.49;100936.72;1749164;80;20963;-44
2022/07/04 07:52:44;;;;;;;5.75;2.60;;;;;;;30.63;48.98;100940.53;1757753;80;21159;-44
2022/07/04 07:55:11;;;;;;;11.97;3.33;;;;;;;30.82;48.34;100939.58;1753863;80;20993;-44
2022/07/04 07:57:39;;;;;;;16.20;2.70;;;;;;;30.90;48.85;100936.98;1769449;80;21049;-44
2022/07/04 08:00:09;;;;;;;10.90;2.92;;;;;;;31.00;46.86;100935.59;1768446;80;20988;-44
2022/07/04 08:05:26;;;;;;;22.80;3.47;;;;;;;30.92;45.76;100935.00;1751829;80;22206;-43
2022/07/04 08:07:55;;;;;;;13.62;3.15;;;;;;;30.76;45.59;100931.66;1753359;80;20995;-44
2022/07/04 08:10:23;;;;;;;10.00;2.83;;;;;;;30.70;47.66;100928.26;1754131;80;20967;-44
2022/07/04 08:12:50;;;;;;;8.43;2.65;;;;;;;30.90;49.41;100934.31;1744353;80;20989;-43
2022/07/04 08:15:18;;;;;;;8.83;2.67;;;;;;;31.11;46.11;100927.37;1768718;80;20984;-44
2022/07/04 08:17:46;;;;;;;6.45;2.42;;;;;;;31.29;47.14;100925.20;1745986;80;21525;-43
2022/07/04 08:20:13;;;;;;;34.15;4.25;;;;;;;31.50;44.83;100918.21;1749190;80;20914;-43
2022/07/04 08:22:40;;;;;;;14.13;2.77;;;;;;;31.64;43.77;100916.81;1766166;80;20885;-43
2022/07/04 08:25:08;;;;;;;8.50;2.98;;;;;;;31.60;44.05;100918.61;1763260;80;21501;-43
2022/07/04 08:27:37;;;;;;;5.72;2.60;;;;;;;31.72;43.48;100917.38;1766280;80;21520;-44
2022/07/04 08:30:05;;;;;;;6.92;2.35;;;;;;;31.79;43.21;100914.44;1761034;80;21548;-43
2022/07/04 08:32:33;;;;;;;7.50;2.62;;;;;;;31.92;43.96;100912.67;1763562;80;21482;-45
2022/07/04 08:35:02;;;;;;;14.30;3.27;;;;;;;32.08;42.34;100922.63;1764957;80;20972;-44
2022/07/04 08:37:30;;;;;;;7.50;3.10;;;;;;;32.31;43.19;100918.06;1758596;80;21522;-45
2022/07/04 08:39:59;;;;;;;4.58;2.60;;;;;;;32.44;41.09;100919.47;1741695;80;21000;-44
2022/07/04 08:42:28;;;;;;;7.33;2.87;;;;;;;32.36;38.78;100921.64;1739328;80;21091;-45
2022/07/04 08:44:56;;;;;;;11.57;2.80;;;;;;;32.34;38.95;100926.31;1762280;80;21003;-44
2022/07/04 08:47:25;;;;;;;10.95;3.72;;;;;;;32.41;40.61;100917.11;1757262;80;20980;-42
2022/07/04 08:50:12;;;;;;;6.70;2.72;;;;;;;32.44;40.42;100923.48;1750828;80;20986;-43
2022/07/04 08:52:42;;;;;;;12.45;2.98;;;;;;;32.52;40.30;100919.52;1754200;80;20966;-44
2022/07/04 09:00:45;;;;;;;7.53;2.90;;;;;;;32.66;40.01;100915.37;1749434;80;21052;-45
2022/07/04 09:03:13;;;;;;;10.30;3.05;;;;;;;32.64;40.66;100919.55;1740550;81;20988;-44
2022/07/04 09:05:42;;;;;;;9.08;3.25;;;;;;;32.66;40.37;100917.53;1737663;80;20993;-44
2022/07/04 09:08:11;;;;;;;16.90;2.98;;;;;;;32.80;41.34;100917.92;1746410;80;21196;-44
2022/07/04 09:10:40;;;;;;;9.93;2.92;;;;;;;32.91;38.49;100922.98;1768475;80;21627;-44
2022/07/04 09:13:10;;;;;;;7.42;2.80;;;;;;;32.89;38.90;100921.50;1740403;80;20980;-44
2022/07/04 09:15:39;;;;;;;8.55;2.40;;;;;;;32.68;39.88;100921.41;1732982;80;20993;-44
2022/07/04 09:18:32;;;;;;;4.75;2.55;;;;;;;32.72;41.97;100917.91;1714066;80;20929;-44
2022/07/04 09:21:04;;;;;;;4.47;2.58;;;;;;;32.79;40.07;100917.59;1749482;80;21793;-44
2022/07/04 09:23:35;;;;;;;6.80;2.75;;;;;;;32.92;39.76;100910.44;1691799;83;21285;-44
2022/07/04 09:26:19;;;;;;;8.40;2.70;;;;;;;32.77;38.64;100915.06;1684067;83;20948;-43
2022/07/04 09:28:53;;;;;;;5.60;2.72;;;;;;;32.77;39.44;100912.89;1764815;80;21039;-43
2022/07/04 09:31:27;;;;;;;7.12;2.83;;;;;;;32.72;38.76;100904.00;1736887;80;21492;-44
2022/07/04 09:33:59;;;;;;;5.92;3.00;;;;;;;32.46;38.51;100900.91;1735449;81;21446;-44
2022/07/04 09:36:30;;;;;;;7.22;2.75;;;;;;;32.56;38.19;100901.27;1738444;80;20993;-43
2022/07/04 09:39:21;;;;;;;2.87;2.57;;;;;;;32.51;39.33;100896.41;1756267;80;20909;-44
2022/07/04 09:41:53;;;;;;;12.43;3.15;;;;;;;32.70;38.40;100895.77;1763385;80;21015;-43
2022/07/04 09:44:20;;;;;;;2.77;2.58;;;;;;;32.65;39.32;100891.75;1751629;80;21011;-43
2022/07/04 09:46:47;;;;;;;17.40;3.20;;;;;;;32.52;38.75;100893.56;1766899;80;21227;-43
2022/07/04 09:49:14;;;;;;;9.43;3.27;;;;;;;32.52;40.32;100888.72;1749592;80;20901;-43
2022/07/04 09:51:48;;;;;;;9.15;3.40;;;;;;;32.61;37.13;100889.06;1756880;80;21016;-43
2022/07/04 09:54:32;;;;;;;4.50;3.17;;;;;;;32.58;38.16;100887.20;1753644;80;21528;-44
2022/07/04 09:57:01;;;;;;;6.25;3.15;;;;;;;32.79;37.98;100881.41;1755375;80;21020;-42
2022/07/04 09:59:28;;;;;;;3.30;3.10;;;;;;;32.84;39.43;100876.39;1747022;80;21124;-44
2022/07/04 10:02:11;;;;;;;5.17;2.87;;;;;;;32.81;36.34;100882.08;1737332;81;21014;-44
2022/07/04 10:04:43;;;;;;;14.20;3.50;;;;;;;32.67;39.31;100875.01;1722818;80;21066;-43
2022/07/04 10:07:10;;;;;;;19.10;3.58;;;;;;;32.73;38.67;100876.72;1739698;80;20936;-43
2022/07/04 10:09:37;;;;;;;7.20;3.10;;;;;;;33.17;39.09;100873.76;1745043;80;21020;-43
2022/07/04 10:12:06;;;;;;;5.92;3.40;;;;;;;33.41;37.96;100873.41;1749248;80;21123;-44
2022/07/04 10:14:33;;;;;;;5.05;2.92;;;;;;;33.41;37.56;100869.39;1707729;81;21471;-43
2022/07/04 10:17:02;;;;;;;10.43;3.30;;;;;;;33.32;37.07;100867.22;1713813;82;20991;-43
2022/07/04 10:19:32;;;;;;;12.85;3.12;;;;;;;33.15;35.77;100860.20;1746407;81;21027;-44
2022/07/04 10:21:59;;;;;;;5.35;2.83;;;;;;;33.02;37.08;100862.05;1762672;80;20972;-43
2022/07/04 10:24:27;;;;;;;11.50;3.67;;;;;;;33.23;38.22;100859.70;1729700;81;21142;-43
2022/07/04 10:26:55;;;;;;;4.45;2.98;;;;;;;33.47;36.62;100862.06;1741846;80;20974;-44
2022/07/04 10:29:22;;;;;;;23.07;3.85;;;;;;;33.56;35.70;100859.36;1742941;80;21576;-44
2022/07/04 10:31:50;;;;;;;5.97;3.42;;;;;;;33.56;35.92;100862.05;1753900;80;21311;-44
2022/07/04 10:34:18;;;;;;;3.47;3.05;;;;;;;33.60;36.25;100857.52;1758675;80;20968;-44
2022/07/04 10:36:51;;;;;;;5.83;3.20;;;;;;;33.69;35.74;100855.62;1729045;80;21123;-43
2022/07/04 10:39:23;;;;;;;15.60;4.05;;;;;;;33.84;34.24;100860.30;1736043;80;20995;-44
2022/07/04 10:42:02;;;;;;;5.75;3.58;;;;;;;33.94;33.51;100863.61;1732920;80;20948;-43
2022/07/04 10:44:34;;;;;;;14.33;4.30;;;;;;;33.99;34.42;100856.42;1741911;80;21055;-44
2022/07/04 10:46:57;;;;;;;17.45;3.70;;;;;;;34.14;33.81;100852.50;1741753;80;21036;-43
2022/07/04 10:49:25;;;;;;;17.73;3.60;;;;;;;34.24;34.14;100850.45;1731567;80;21866;-44
2022/07/04 10:52:13;;;;;;;14.15;3.40;;;;;;;34.24;34.60;100846.42;1758907;80;21035;-46
2022/07/04 10:54:41;;;;;;;25.45;4.12;;;;;;;34.24;33.81;100846.42;1712359;81;21020;-44
2022/07/04 10:57:21;;;;;;;42.80;5.55;;;;;;;34.24;34.55;100839.71;1732383;80;21110;-43
2022/07/04 11:00:01;;;;;;;20.77;4.70;;;;;;;34.23;34.68;100844.23;1730729;81;21646;-43
2022/07/04 11:02:38;;;;;;;116.42;9.93;;;;;;;34.24;34.91;100840.53;1741591;80;21318;-43
2022/07/04 11:05:11;;;;;;;17.95;4.33;;;;;;;34.37;35.06;100837.27;1736624;80;20948;-44
2022/07/04 11:07:46;;;;;;;12.60;3.60;;;;;;;34.62;33.71;100833.13;1744216;80;21078;-44
2022/07/04 11:13:02;;;;;;;32.17;5.47;;;;;;;34.68;34.63;100829.72;1727341;80;21011;-43
2022/07/04 11:15:40;;;;;;;13.00;4.60;;;;;;;34.54;32.86;100833.19;1754368;80;21857;-43
2022/07/04 11:18:13;;;;;;;30.65;4.65;;;;;;;34.51;33.87;100828.17;1733764;80;20983;-43
2022/07/04 11:20:46;;;;;;;72.20;6.00;;;;;;;34.60;34.86;100822.21;1723003;81;21655;-43
2022/07/04 11:23:24;;;;;;;44.98;5.22;;;;;;;34.71;34.90;100823.16;1758553;80;21084;-43
2022/07/04 11:25:54;;;;;;;33.10;4.72;;;;;;;34.80;33.87;100824.75;1722861;82;21010;-43
2022/07/04 11:28:35;;;;;;;76.75;6.90;;;;;;;34.70;33.19;100817.45;1718051;81;21253;-43
2022/07/04 11:31:04;;;;;;;80.55;7.62;;;;;;;34.71;34.45;100820.47;1757675;80;21067;-43
2022/07/04 11:33:34;;;;;;;52.35;6.17;;;;;;;34.78;32.30;100815.22;1744953;80;21003;-45
2022/07/04 11:36:20;;;;;;;51.92;5.80;;;;;;;34.93;33.56;100816.61;1742354;80;21530;-43
2022/07/04 11:39:03;;;;;;;45.80;5.87;;;;;;;35.02;32.62;100810.16;1742607;80;21487;-44
2022/07/04 11:47:25;;;;;;;6.95;3.42;;;;;;;34.57;33.53;100809.99;1738825;80;21035;-43
2022/07/04 11:49:55;;;;;;;5.60;2.92;;;;;;;34.57;34.75;100808.64;1743354;80;20912;-43
2022/07/04 11:52:26;;;;;;;4.72;3.33;;;;;;;34.65;32.14;100803.20;1766518;80;21135;-43